Aérodrome :
LOGIN :

S'inscrire | Disclaimer

   EN    FR    IT 

 










Légende :    VFR   VFR Marginal   IFR   IFR Intensif   IFR Très Intensif
Visi : 
Plafond : 
>= 8 km
>= 3000ft
5 à 8 km
1000 à 3000 ft
1500m à 5 km
500 à 1000 ft
800 à 1500m
200 à 500 ft
< 800m
< 200 ft
Symboles :   Orages  Brouillard  Fortes neiges  Fortes précipitations  Vent > 20 kt
SIGMETs :   Divers  Orages  Givrage  Turbulence  Onde Orograph.  Cendres Volcan.






- Altitude de l'aérodrome : 392 ft
- Code IATA : CDG


LFPG - Paris-Aeroport Charles De Gaulle

DERNIER METAR :
  • 152000Z 01003KT 9999 BKN034 M00/M04 Q1030 NOSIG

METARs EXPIRÉS :
  • 151930Z 01004KT 350V090 9999 BKN033 M00/M04 Q1030 NOSIG
  • 151900Z 04005KT 9999 BKN032 M00/M05 Q1030 NOSIG
  • 151830Z 04007KT 9999 BKN028 00/M05 Q1030 NOSIG
  • 151800Z 05009KT 9999 BKN028 01/M05 Q1030 NOSIG
  • 151730Z 05009KT 9999 BKN028 01/M04 Q1030 NOSIG

TAF TAF LFPG
Valide du 15 à 18h jusqu'au 17 à 00h UTC


151700Z 1518/1624 03008KT 9999 BKN028 TX03/1623Z TNM03/1603Z
TEMPO 1519/1608 CAVOK
BECMG 1609/1611 4000 -SN BKN004 BKN012
PROB40
TEMPO 1613/1616 19015G25KT 1500 SN
TEMPO 1617/1618 SNRA
PROB40
TEMPO 1617/1618 FZRA
BECMG 1622/1624 BKN030
ATIS : +33 1 48 62 10 92



MET'MAP, la Météo Aéronautique d'un coup d'oeil ! - Copyright ORBIFLY Décembre 2007 - Disclaimer

ORBIFLY MET'MAP TEAM :

Programmation & Développement : Alexandra Zaïnal
Sur une idée originale de : Baudouin d'Aumeries
Assistance à la programmation : Marc-Olivier Méhu
Soutien technique & logistique : Manuel Goepfert

Contact : metmap@orbifly.com




SOURCES & CREDITS :

   NOAA